Nowshera Weather



Nowshera's Current Weather

Temprature 16o haze

haze

Rain: 0 %

Min Temprature16o
Max Temprature16o
Humidity59
Wind Speed2.1 m/h
Sun Rise06:27:56
Sun Set17:23:24
Current Time: 28-Oct-2020 07:22:46
Lat/Lon: 34.01, 72




Nowshera's Geo Location



Nowshera's Weather Forecast

Time Overall Temp Min Temp Max Temp Humidity Wind Speed Rain
28-Oct-2020 (Wed)
08:00:00 clear sky 18.300 18.300 20.710 41 1.06 m/h 0 %
11:00:00 clear sky 23.970 23.970 26.170 26 0.53 m/h 0 %
14:00:00 clear sky 28.640 28.640 29.500 16 0.61 m/h 0 %
17:00:00 clear sky 26.780 26.780 26.870 17 1.98 m/h 0 %
20:00:00 clear sky 22.800 22.800 22.800 21 1.66 m/h 0 %
23:00:00 clear sky 20.270 20.270 20.270 25 1.83 m/h 0 %
29-Oct-2020 (Thu)
02:00:00 clear sky 18.450 18.450 18.450 28 0.6 m/h 0 %
05:00:00 clear sky 17.690 17.690 17.690 29 1.12 m/h 0 %
08:00:00 clear sky 20.780 20.780 20.780 24 1.32 m/h 0 %
11:00:00 clear sky 26.140 26.140 26.140 17 2.5 m/h 0 %
14:00:00 clear sky 29.180 29.180 29.180 14 2.64 m/h 0 %
17:00:00 clear sky 25.990 25.990 25.990 17 1.36 m/h 0 %
20:00:00 clear sky 21.530 21.530 21.530 21 0.95 m/h 0 %
23:00:00 clear sky 19.280 19.280 19.280 25 1.03 m/h 0 %
30-Oct-2020 (Fri)
02:00:00 clear sky 17.350 17.350 17.350 30 1.07 m/h 0 %
05:00:00 clear sky 16.720 16.720 16.720 31 1.56 m/h 0 %
08:00:00 clear sky 19.700 19.700 19.700 26 1.47 m/h 0 %
11:00:00 clear sky 25.740 25.740 25.740 16 2.79 m/h 0 %
14:00:00 clear sky 29.490 29.490 29.490 12 2.93 m/h 0 %
17:00:00 clear sky 26.150 26.150 26.150 15 2.21 m/h 0 %
20:00:00 clear sky 22.620 22.620 22.620 19 2.69 m/h 0 %
23:00:00 clear sky 19.750 19.750 19.750 21 1.42 m/h 0 %
31-Oct-2020 (Sat)
02:00:00 clear sky 17.020 17.020 17.020 26 1.07 m/h 0 %
05:00:00 clear sky 15.650 15.650 15.650 29 1.32 m/h 0 %
08:00:00 clear sky 19.210 19.210 19.210 23 1.89 m/h 0 %
11:00:00 clear sky 25.360 25.360 25.360 15 3.06 m/h 0 %
14:00:00 clear sky 29.640 29.640 29.640 11 3.37 m/h 0 %
17:00:00 clear sky 26.580 26.580 26.580 13 3.63 m/h 0 %
20:00:00 clear sky 22.650 22.650 22.650 16 3.13 m/h 0 %
23:00:00 clear sky 20.280 20.280 20.280 18 1.97 m/h 0 %
01-Nov-2020 (Sun)
02:00:00 clear sky 16.720 16.720 16.720 25 0.98 m/h 0 %
05:00:00 clear sky 15.390 15.390 15.390 27 1.1 m/h 0 %
08:00:00 clear sky 19.070 19.070 19.070 22 1.97 m/h 0 %
11:00:00 clear sky 25.160 25.160 25.160 15 2.84 m/h 0 %
14:00:00 clear sky 30.190 30.190 30.190 11 3.31 m/h 0 %
17:00:00 clear sky 26.870 26.870 26.870 13 3.57 m/h 0 %
20:00:00 clear sky 23.840 23.840 23.840 13 3.4 m/h 0 %
23:00:00 clear sky 19.140 19.140 19.140 19 0.36 m/h 0 %
02-Nov-2020 (Mon)
02:00:00 clear sky 16.900 16.900 16.900 24 1.07 m/h 0 %
05:00:00 clear sky 15.600 15.600 15.600 28 0.81 m/h 0 %

Famous Cities (60)